createdAt,value
2023-04-16T00:00:43.127Z,5.32
2023-04-16T00:03:09.820Z,6.43
2023-04-16T00:05:36.652Z,5.70
2023-04-16T00:08:03.368Z,6.35
2023-04-16T00:10:29.903Z,4.93
2023-04-16T00:12:56.403Z,5.53
2023-04-16T00:15:23.173Z,5.03
2023-04-16T00:17:49.808Z,4.95
2023-04-16T00:20:16.579Z,4.90
2023-04-16T00:22:43.110Z,5.90
2023-04-16T00:25:09.718Z,6.47
2023-04-16T00:27:36.334Z,6.07
2023-04-16T00:30:03.578Z,6.13
2023-04-16T00:32:30.806Z,6.57
2023-04-16T00:34:57.403Z,4.80
2023-04-16T00:37:24.011Z,4.40
2023-04-16T00:39:50.831Z,6.03
2023-04-16T00:42:17.368Z,6.25
2023-04-16T00:44:43.881Z,3.65
2023-04-16T00:47:11.089Z,5.90
2023-04-16T00:49:37.765Z,5.82
2023-04-16T00:52:04.570Z,5.20
2023-04-16T00:54:32.246Z,6.07
2023-04-16T00:56:59.842Z,6.50
2023-04-16T00:59:27.173Z,6.93
2023-04-16T01:01:54.092Z,7.15
2023-04-16T01:04:21.412Z,5.60
2023-04-16T01:06:48.073Z,6.18
2023-04-16T01:09:14.638Z,5.93
2023-04-16T01:11:41.200Z,5.72
2023-04-16T01:14:08.655Z,5.55
2023-04-16T01:16:35.207Z,5.35
2023-04-16T01:19:01.764Z,5.10
2023-04-16T01:21:28.517Z,5.78
2023-04-16T01:23:55.932Z,4.97
2023-04-16T01:26:22.408Z,5.38
2023-04-16T01:28:48.911Z,5.05
2023-04-16T01:31:15.454Z,5.25
2023-04-16T01:33:42.035Z,6.90
2023-04-16T01:36:08.631Z,5.53
2023-04-16T01:38:35.152Z,6.30
2023-04-16T01:41:01.974Z,7.10
2023-04-16T01:43:28.563Z,6.78
2023-04-16T01:46:14.175Z,5.68
2023-04-16T01:48:40.831Z,7.05
2023-04-16T01:51:07.313Z,7.25
2023-04-16T01:53:36.541Z,7.30
2023-04-16T01:56:03.784Z,7.53
2023-04-16T01:58:31.158Z,7.80
2023-04-16T02:00:57.972Z,9.20
2023-04-16T02:03:24.951Z,9.00
2023-04-16T02:05:52.113Z,8.38
2023-04-16T02:08:18.662Z,5.60
2023-04-16T02:10:50.067Z,9.80
2023-04-16T02:13:17.311Z,8.10
2023-04-16T02:15:48.449Z,10.38
2023-04-16T02:18:15.109Z,8.48
2023-04-16T02:20:46.704Z,11.55
2023-04-16T02:23:15.143Z,9.63
2023-04-16T02:25:43.323Z,9.30
2023-04-16T02:28:11.674Z,9.95
2023-04-16T02:30:39.343Z,9.23
2023-04-16T02:33:07.512Z,6.82
2023-04-16T02:35:38.522Z,8.82
2023-04-16T02:38:05.451Z,8.02
2023-04-16T02:40:32.174Z,9.30
2023-04-16T02:42:58.701Z,9.63
2023-04-16T02:45:25.643Z,8.00
2023-04-16T02:47:52.469Z,12.80
2023-04-16T02:50:19.171Z,10.43
2023-04-16T02:52:45.932Z,10.68
2023-04-16T02:55:12.467Z,9.68
2023-04-16T02:57:39.177Z,11.88
2023-04-16T03:00:06.288Z,9.68
2023-04-16T03:02:32.941Z,9.13
2023-04-16T03:04:59.477Z,9.82
2023-04-16T03:07:26.283Z,9.90
2023-04-16T03:09:52.896Z,9.25
2023-04-16T03:12:19.396Z,10.30
2023-04-16T03:14:46.101Z,9.40
2023-04-16T03:17:12.722Z,10.02
2023-04-16T03:19:39.276Z,7.32
2023-04-16T03:22:05.915Z,7.55
2023-04-16T03:24:32.425Z,10.70
2023-04-16T03:26:59.036Z,7.50
2023-04-16T03:29:26.776Z,8.57
2023-04-16T03:31:53.440Z,8.63
2023-04-16T03:34:19.958Z,9.10
2023-04-16T03:36:46.491Z,9.07
2023-04-16T03:39:13.061Z,9.02
2023-04-16T03:41:39.585Z,10.35
2023-04-16T03:44:06.235Z,10.93
2023-04-16T03:46:32.732Z,8.82
2023-04-16T03:48:59.319Z,10.82
2023-04-16T03:51:26.449Z,9.60
2023-04-16T03:53:53.117Z,5.97
2023-04-16T03:56:19.740Z,8.13
2023-04-16T03:58:46.259Z,9.13
2023-04-16T04:01:12.757Z,8.18
2023-04-16T04:03:39.537Z,10.25
2023-04-16T04:06:09.466Z,10.40
2023-04-16T04:08:36.560Z,9.70
2023-04-16T04:11:03.060Z,10.00
2023-04-16T04:13:49.945Z,9.80
2023-04-16T04:16:16.488Z,11.35
2023-04-16T04:18:44.450Z,10.20
2023-04-16T04:21:11.356Z,10.00
2023-04-16T04:23:37.824Z,10.60
2023-04-16T04:26:05.670Z,10.20
2023-04-16T04:28:33.344Z,9.05
2023-04-16T04:31:00.810Z,9.20
2023-04-16T04:33:28.265Z,8.85
2023-04-16T04:35:55.715Z,8.10
2023-04-16T04:38:25.303Z,8.88
2023-04-16T04:40:52.888Z,9.70
2023-04-16T04:43:20.342Z,9.60
2023-04-16T04:45:47.387Z,10.10
2023-04-16T04:48:13.926Z,9.45
2023-04-16T04:50:41.791Z,10.57
2023-04-16T04:53:11.525Z,11.13
2023-04-16T04:55:38.968Z,10.48
2023-04-16T04:58:06.406Z,9.98
2023-04-16T05:00:33.823Z,11.35
2023-04-16T05:03:05.977Z,10.85
2023-04-16T05:05:32.810Z,10.80
2023-04-16T05:08:00.636Z,12.38
2023-04-16T05:10:27.986Z,11.32
2023-04-16T05:12:57.344Z,9.65
2023-04-16T05:15:23.964Z,11.60
2023-04-16T05:17:50.761Z,12.27
2023-04-16T05:20:17.329Z,12.07
2023-04-16T05:22:43.835Z,10.40
2023-04-16T05:25:10.412Z,11.40
2023-04-16T05:27:37.130Z,10.20
2023-04-16T05:30:04.060Z,11.27
2023-04-16T05:32:30.693Z,10.48
2023-04-16T05:34:57.248Z,11.27
2023-04-16T05:37:23.808Z,10.55
2023-04-16T05:39:50.715Z,10.27
2023-04-16T05:42:17.317Z,10.88
2023-04-16T05:44:43.947Z,10.43
2023-04-16T05:47:10.843Z,10.13
2023-04-16T05:49:37.365Z,10.00
2023-04-16T05:52:05.294Z,11.88
2023-04-16T05:54:31.822Z,10.18
2023-04-16T05:56:58.293Z,10.98
2023-04-16T05:59:24.830Z,10.55
2023-04-16T06:01:51.467Z,11.13
2023-04-16T06:04:18.134Z,12.05
2023-04-16T06:06:44.832Z,11.35
2023-04-16T06:09:11.804Z,10.65
2023-04-16T06:11:38.500Z,11.52
2023-04-16T06:14:05.049Z,12.35
2023-04-16T06:16:31.752Z,9.93
2023-04-16T06:18:58.429Z,12.07
2023-04-16T06:21:25.048Z,10.38
2023-04-16T06:23:51.601Z,11.07
2023-04-16T06:26:19.169Z,11.38
2023-04-16T06:28:45.661Z,11.20
2023-04-16T06:31:15.128Z,11.40
2023-04-16T06:33:41.665Z,12.50
2023-04-16T06:36:08.217Z,8.65
2023-04-16T06:38:36.003Z,10.65
2023-04-16T06:41:02.654Z,10.35
2023-04-16T06:43:30.067Z,11.25
2023-04-16T06:45:56.574Z,10.80
2023-04-16T06:48:23.014Z,11.73
2023-04-16T06:50:49.652Z,11.38
2023-04-16T06:53:16.347Z,12.00
2023-04-16T06:55:42.888Z,11.18
2023-04-16T06:58:09.526Z,10.27
2023-04-16T07:00:36.096Z,11.48
2023-04-16T07:03:03.327Z,11.20
2023-04-16T07:05:30.106Z,11.10
2023-04-16T07:07:57.646Z,12.73
2023-04-16T07:10:24.441Z,12.20
2023-04-16T07:12:51.082Z,12.55
2023-04-16T07:15:17.611Z,15.82
2023-04-16T07:17:44.110Z,13.15
2023-04-16T07:20:17.650Z,21.70
2023-04-16T07:22:44.314Z,15.43
2023-04-16T07:25:10.994Z,14.45
2023-04-16T07:27:37.524Z,14.27
2023-04-16T07:30:04.342Z,13.02
2023-04-16T07:32:30.949Z,10.32
2023-04-16T07:34:58.048Z,14.65
2023-04-16T07:37:24.899Z,15.10
2023-04-16T07:39:53.032Z,10.20
2023-04-16T07:42:19.861Z,12.27
2023-04-16T07:44:46.705Z,13.63
2023-04-16T07:47:13.676Z,11.82
2023-04-16T07:49:40.576Z,10.95
2023-04-16T07:52:07.370Z,10.02
2023-04-16T07:54:34.243Z,11.18
2023-04-16T07:57:02.130Z,11.75
2023-04-16T07:59:29.065Z,11.35
2023-04-16T08:01:56.493Z,13.00
2023-04-16T08:04:25.665Z,11.55
2023-04-16T08:06:53.133Z,10.85
2023-04-16T08:09:21.624Z,11.35
2023-04-16T08:11:49.903Z,13.23
2023-04-16T08:14:17.059Z,12.02
2023-04-16T08:16:43.541Z,12.77
2023-04-16T08:19:10.386Z,11.32
2023-04-16T08:21:37.191Z,11.38
2023-04-16T08:24:03.977Z,11.48
2023-04-16T08:26:30.462Z,9.50
2023-04-16T08:28:56.916Z,12.18
2023-04-16T08:31:23.431Z,10.88
2023-04-16T08:33:50.129Z,11.80
2023-04-16T08:36:16.628Z,10.68
2023-04-16T08:38:43.180Z,11.60
2023-04-16T08:41:12.874Z,13.15
2023-04-16T08:43:44.750Z,12.52
2023-04-16T08:46:12.459Z,13.75
2023-04-16T08:48:42.936Z,13.48
2023-04-16T08:51:11.191Z,13.40
2023-04-16T08:53:51.763Z,13.20
2023-04-16T08:56:21.140Z,14.73
2023-04-16T08:58:50.059Z,12.32
2023-04-16T09:03:48.688Z,12.65
2023-04-16T09:06:17.017Z,10.90
2023-04-16T09:08:48.093Z,13.55
2023-04-16T09:11:17.987Z,7.95
2023-04-16T09:13:46.256Z,11.95
2023-04-16T09:16:14.028Z,10.38
2023-04-16T09:18:41.374Z,12.60
2023-04-16T09:21:11.277Z,12.40
2023-04-16T09:23:41.180Z,11.25
2023-04-16T09:26:07.729Z,11.82
2023-04-16T09:28:47.949Z,13.20
2023-04-16T09:31:16.159Z,12.93
2023-04-16T09:33:44.152Z,14.45
2023-04-16T09:36:11.101Z,12.90
2023-04-16T09:38:52.020Z,11.38
2023-04-16T09:41:19.091Z,11.98
2023-04-16T09:43:59.631Z,11.98
2023-04-16T09:46:36.523Z,11.60
2023-04-16T09:49:15.655Z,12.68
2023-04-16T09:51:44.207Z,10.00
2023-04-16T09:54:10.913Z,14.60
2023-04-16T09:56:42.669Z,13.07
2023-04-16T09:59:17.402Z,11.40
2023-04-16T10:01:46.711Z,11.88
2023-04-16T10:04:13.400Z,12.25
2023-04-16T10:06:39.940Z,11.27
2023-04-16T10:09:11.012Z,10.63
2023-04-16T10:11:37.998Z,14.02
2023-04-16T10:14:04.556Z,12.30
2023-04-16T10:16:31.128Z,12.30
2023-04-16T10:18:59.085Z,11.90
2023-04-16T10:21:33.766Z,12.45
2023-04-16T10:24:01.187Z,12.38
2023-04-16T10:26:29.891Z,11.55
2023-04-16T10:28:58.334Z,12.60
2023-04-16T10:31:27.178Z,12.45
2023-04-16T10:33:54.318Z,11.40
2023-04-16T10:36:26.421Z,10.60
2023-04-16T10:38:58.271Z,11.50
2023-04-16T10:41:26.780Z,12.00
2023-04-16T10:44:03.276Z,10.73
2023-04-16T10:46:50.247Z,12.52
2023-04-16T10:49:19.351Z,12.30
2023-04-16T10:51:56.424Z,13.07
2023-04-16T10:54:27.949Z,12.80
2023-04-16T10:57:04.490Z,10.38
2023-04-16T10:59:35.997Z,12.52
2023-04-16T11:02:08.777Z,11.95
2023-04-16T11:04:38.138Z,12.43
2023-04-16T11:07:16.963Z,14.90
2023-04-16T11:10:12.922Z,10.57
2023-04-16T11:12:40.456Z,12.75
2023-04-16T11:15:11.228Z,9.68
2023-04-16T11:17:38.014Z,9.65
2023-04-16T11:20:20.498Z,8.32
2023-04-16T11:22:52.060Z,9.55
2023-04-16T11:25:23.235Z,8.77
2023-04-16T11:27:50.813Z,9.20
2023-04-16T11:30:18.346Z,8.63
2023-04-16T11:32:46.486Z,8.55
2023-04-16T11:35:18.140Z,8.32
2023-04-16T11:37:46.348Z,8.10
2023-04-16T11:40:13.057Z,6.47
2023-04-16T11:42:41.395Z,7.97
2023-04-16T11:45:09.942Z,7.80
2023-04-16T11:47:44.598Z,7.40
2023-04-16T11:50:22.616Z,8.40
2023-04-16T11:52:50.737Z,8.40
2023-04-16T11:55:17.846Z,8.65
2023-04-16T11:57:45.688Z,8.27
2023-04-16T12:00:14.272Z,8.60
2023-04-16T12:05:32.256Z,8.55
2023-04-16T12:10:27.087Z,8.15
2023-04-16T12:12:53.683Z,9.07
2023-04-16T12:15:20.351Z,8.68
2023-04-16T12:17:47.843Z,8.25
2023-04-16T12:20:15.734Z,7.53
2023-04-16T12:22:48.241Z,8.15
2023-04-16T12:25:17.055Z,8.13
2023-04-16T12:27:55.879Z,7.03
2023-04-16T12:30:23.890Z,7.80
2023-04-16T12:32:52.232Z,8.43
2023-04-16T12:35:33.553Z,7.68
2023-04-16T12:38:01.549Z,7.38
2023-04-16T12:40:28.238Z,6.70
2023-04-16T12:42:55.064Z,7.43
2023-04-16T12:45:22.288Z,8.32
2023-04-16T12:47:50.531Z,7.60
2023-04-16T12:50:18.012Z,8.85
2023-04-16T12:52:44.664Z,9.25
2023-04-16T12:55:12.554Z,9.05
2023-04-16T12:57:39.107Z,8.55
2023-04-16T13:00:06.704Z,8.35
2023-04-16T13:02:33.398Z,9.20
2023-04-16T13:05:00.140Z,8.95
2023-04-16T13:07:28.202Z,9.05
2023-04-16T13:09:54.957Z,8.80
2023-04-16T13:12:21.702Z,7.93
2023-04-16T13:14:48.210Z,9.13
2023-04-16T13:17:15.102Z,8.70
2023-04-16T13:19:41.610Z,8.93
2023-04-16T13:22:08.450Z,9.65
2023-04-16T13:24:35.097Z,10.35
2023-04-16T13:27:01.647Z,9.43
2023-04-16T13:29:28.385Z,9.18
2023-04-16T13:31:55.237Z,9.40
2023-04-16T13:34:21.869Z,9.45
2023-04-16T13:36:48.726Z,9.57
2023-04-16T13:39:15.831Z,9.18
2023-04-16T13:41:43.342Z,8.88
2023-04-16T13:44:10.047Z,9.95
2023-04-16T13:46:36.704Z,7.53
2023-04-16T13:49:03.299Z,8.40
2023-04-16T13:51:29.934Z,9.38
2023-04-16T13:53:56.466Z,9.30
2023-04-16T13:56:23.086Z,9.48
2023-04-16T13:58:49.693Z,8.05
2023-04-16T14:01:17.364Z,9.23
2023-04-16T14:03:44.457Z,10.48
2023-04-16T14:06:11.331Z,8.98
2023-04-16T14:08:38.311Z,9.15
2023-04-16T14:11:06.502Z,7.88
2023-04-16T14:13:33.198Z,10.55
2023-04-16T14:15:59.888Z,9.82
2023-04-16T14:18:26.426Z,10.07
2023-04-16T14:20:53.152Z,9.10
2023-04-16T14:23:19.781Z,9.20
2023-04-16T14:25:46.374Z,9.52
2023-04-16T14:28:15.498Z,9.70
2023-04-16T14:30:42.626Z,9.65
2023-04-16T14:33:09.246Z,9.23
2023-04-16T14:35:36.117Z,8.98
2023-04-16T14:38:02.932Z,9.07
2023-04-16T14:40:29.531Z,8.55
2023-04-16T14:42:56.078Z,7.57
2023-04-16T14:45:23.171Z,8.35
2023-04-16T14:47:50.830Z,9.30
2023-04-16T14:50:17.447Z,9.15
2023-04-16T14:52:44.001Z,8.48
2023-04-16T14:55:10.666Z,9.35
2023-04-16T14:57:38.684Z,9.23
2023-04-16T15:00:13.324Z,8.48
2023-04-16T15:02:40.029Z,9.05
2023-04-16T15:05:09.906Z,8.95
2023-04-16T15:07:37.108Z,8.82
2023-04-16T15:10:03.952Z,9.25
2023-04-16T15:12:30.851Z,9.18
2023-04-16T15:14:57.495Z,9.98
2023-04-16T15:17:24.142Z,9.48
2023-04-16T15:19:52.455Z,9.40
2023-04-16T15:22:19.452Z,8.23
2023-04-16T15:24:46.231Z,8.73
2023-04-16T15:27:14.717Z,8.43
2023-04-16T15:29:41.304Z,9.25
2023-04-16T15:32:08.046Z,8.23
2023-04-16T15:34:34.831Z,7.97
2023-04-16T15:37:01.921Z,7.35
2023-04-16T15:39:28.527Z,5.93
2023-04-16T15:42:01.148Z,7.35
2023-04-16T15:44:30.228Z,7.88
2023-04-16T15:46:56.830Z,7.30
2023-04-16T15:49:24.705Z,8.90
2023-04-16T15:51:52.021Z,8.70
2023-04-16T15:54:18.813Z,8.10
2023-04-16T15:56:46.600Z,9.25
2023-04-16T15:59:13.781Z,8.55
2023-04-16T16:01:40.894Z,8.05
2023-04-16T16:04:08.315Z,8.25
2023-04-16T16:06:35.275Z,7.50
2023-04-16T16:09:01.880Z,7.80
2023-04-16T16:11:28.556Z,8.15
2023-04-16T16:13:55.251Z,8.52
2023-04-16T16:16:22.047Z,9.50
2023-04-16T16:18:49.110Z,10.38
2023-04-16T16:21:16.154Z,8.85
2023-04-16T16:23:42.711Z,9.93
2023-04-16T16:26:09.404Z,8.27
2023-04-16T16:28:43.810Z,8.40
2023-04-16T16:31:12.428Z,7.20
2023-04-16T16:33:40.472Z,8.02
2023-04-16T16:36:10.814Z,7.03
2023-04-16T16:38:41.202Z,7.72
2023-04-16T16:41:08.144Z,7.75
2023-04-16T16:43:36.187Z,8.55
2023-04-16T16:46:02.791Z,8.77
2023-04-16T16:48:29.487Z,8.23
2023-04-16T16:50:56.266Z,8.20
2023-04-16T16:53:22.808Z,9.43
2023-04-16T16:55:49.473Z,9.85
2023-04-16T16:58:16.072Z,10.32
2023-04-16T17:00:42.628Z,9.23
2023-04-16T17:03:09.601Z,11.02
2023-04-16T17:05:36.623Z,8.75
2023-04-16T17:08:03.384Z,10.50
2023-04-16T17:10:29.881Z,10.18
2023-04-16T17:12:56.421Z,7.72
2023-04-16T17:15:23.123Z,10.00
2023-04-16T17:17:49.731Z,10.45
2023-04-16T17:20:16.308Z,10.43
2023-04-16T17:22:42.898Z,10.23
2023-04-16T17:25:09.940Z,10.95
2023-04-16T17:27:36.706Z,10.75
2023-04-16T17:30:07.224Z,10.50
2023-04-16T17:32:33.894Z,11.82
2023-04-16T17:35:04.013Z,7.85
2023-04-16T17:37:30.910Z,10.80
2023-04-16T17:39:57.488Z,9.52
2023-04-16T17:42:24.694Z,10.25
2023-04-16T17:44:51.497Z,11.90
2023-04-16T17:47:18.150Z,10.57
2023-04-16T17:49:44.805Z,11.65
2023-04-16T17:52:11.297Z,10.43
2023-04-16T17:54:37.802Z,11.23
2023-04-16T17:57:04.399Z,10.90
2023-04-16T17:59:30.921Z,11.98
2023-04-16T18:01:57.728Z,11.77
2023-04-16T18:04:24.516Z,11.82
2023-04-16T18:06:51.298Z,12.00
2023-04-16T18:09:19.334Z,11.90
2023-04-16T18:11:45.923Z,11.30
2023-04-16T18:14:16.678Z,11.02
2023-04-16T18:16:43.575Z,10.07
2023-04-16T18:19:10.378Z,12.38
2023-04-16T18:21:37.217Z,11.63
2023-04-16T18:24:24.481Z,11.30
2023-04-16T18:26:51.355Z,10.93
2023-04-16T18:29:18.416Z,9.85
2023-04-16T18:31:45.358Z,10.63
2023-04-16T18:34:12.551Z,12.65
2023-04-16T18:36:39.317Z,9.65
2023-04-16T18:39:07.474Z,11.55
2023-04-16T18:41:34.145Z,8.65
2023-04-16T18:44:00.651Z,10.07
2023-04-16T18:46:27.812Z,10.75
2023-04-16T18:48:54.748Z,10.13
2023-04-16T18:51:21.430Z,9.70
2023-04-16T18:53:47.997Z,9.77
2023-04-16T18:56:14.611Z,10.73
2023-04-16T18:58:41.426Z,9.95
2023-04-16T19:01:11.384Z,8.95
2023-04-16T19:03:38.668Z,8.15
2023-04-16T19:06:06.183Z,9.23
2023-04-16T19:08:33.255Z,9.50
2023-04-16T19:11:00.036Z,9.07
2023-04-16T19:13:26.640Z,9.57
2023-04-16T19:15:58.522Z,10.27
2023-04-16T19:18:25.281Z,10.00
2023-04-16T19:20:51.824Z,9.77
2023-04-16T19:23:19.181Z,9.35
2023-04-16T19:25:45.822Z,8.18
2023-04-16T19:28:12.360Z,10.23
2023-04-16T19:30:40.331Z,9.35
2023-04-16T19:33:06.911Z,9.77
2023-04-16T19:35:34.654Z,8.85
2023-04-16T19:38:01.293Z,10.15
2023-04-16T19:40:27.873Z,9.93
2023-04-16T19:42:54.903Z,9.25
2023-04-16T19:45:25.724Z,9.65
2023-04-16T19:47:52.383Z,9.55
2023-04-16T19:50:19.606Z,10.40
2023-04-16T19:52:46.279Z,9.32
2023-04-16T19:55:12.956Z,9.70
2023-04-16T19:57:39.560Z,10.95
2023-04-16T20:00:11.507Z,10.15
2023-04-16T20:02:38.272Z,9.65
2023-04-16T20:05:05.458Z,10.15
2023-04-16T20:07:32.007Z,8.95
2023-04-16T20:09:58.763Z,10.02
2023-04-16T20:12:25.349Z,6.13
2023-04-16T20:14:51.988Z,8.65
2023-04-16T20:17:19.928Z,11.13
2023-04-16T20:19:51.185Z,8.38
2023-04-16T20:22:18.861Z,6.85
2023-04-16T20:24:47.871Z,10.75
2023-04-16T20:27:15.324Z,10.60
2023-04-16T20:29:42.407Z,10.30
2023-04-16T20:32:09.022Z,8.13
2023-04-16T20:34:36.742Z,8.52
2023-04-16T20:37:03.827Z,10.35
2023-04-16T20:39:34.042Z,9.20
2023-04-16T20:42:04.226Z,9.68
2023-04-16T20:44:40.356Z,10.52
2023-04-16T20:47:08.253Z,10.85
2023-04-16T20:49:35.042Z,11.02
2023-04-16T20:52:02.833Z,10.10
2023-04-16T20:54:29.938Z,10.38
2023-04-16T20:56:57.412Z,13.55
2023-04-16T20:59:24.442Z,10.23
2023-04-16T21:01:52.227Z,9.43
2023-04-16T21:04:19.110Z,10.90
2023-04-16T21:06:45.800Z,11.32
2023-04-16T21:09:13.452Z,11.98
2023-04-16T21:11:40.371Z,12.10
2023-04-16T21:14:07.020Z,9.75
2023-04-16T21:16:33.592Z,11.75
2023-04-16T21:19:00.140Z,10.40
2023-04-16T21:21:27.505Z,11.55
2023-04-16T21:23:54.114Z,11.35
2023-04-16T21:26:20.993Z,9.65
2023-04-16T21:28:47.559Z,11.20
2023-04-16T21:31:14.248Z,12.52
2023-04-16T21:33:40.882Z,12.93
2023-04-16T21:36:07.688Z,9.13
2023-04-16T21:38:34.258Z,12.70
2023-04-16T21:41:01.776Z,13.38
2023-04-16T21:43:32.129Z,13.23
2023-04-16T21:45:59.768Z,13.32
2023-04-16T21:48:27.057Z,10.90
2023-04-16T21:51:06.744Z,13.90
2023-04-16T21:53:34.161Z,13.35
2023-04-16T21:56:00.995Z,13.45
2023-04-16T21:58:27.905Z,13.30
2023-04-16T22:00:54.572Z,13.32
2023-04-16T22:03:30.599Z,9.48
2023-04-16T22:06:01.404Z,12.25
2023-04-16T22:08:29.036Z,13.23
2023-04-16T22:11:00.143Z,13.75
2023-04-16T22:13:27.335Z,12.75
2023-04-16T22:15:55.957Z,13.18
2023-04-16T22:18:26.778Z,14.38
2023-04-16T22:20:55.027Z,16.65
2023-04-16T22:23:25.349Z,13.77
2023-04-16T22:25:54.491Z,14.95
2023-04-16T22:28:21.214Z,14.15
2023-04-16T22:30:48.050Z,12.48
2023-04-16T22:33:14.963Z,13.68
2023-04-16T22:35:41.574Z,17.17
2023-04-16T22:38:08.140Z,14.77
2023-04-16T22:40:34.687Z,16.17
2023-04-16T22:43:01.186Z,14.32
2023-04-16T22:45:31.717Z,12.93
2023-04-16T22:47:58.308Z,16.02
2023-04-16T22:50:24.890Z,16.33
2023-04-16T22:52:51.412Z,16.65
2023-04-16T22:55:47.764Z,15.45
2023-04-16T22:58:14.263Z,14.63
2023-04-16T23:00:40.712Z,14.50
2023-04-16T23:03:07.384Z,12.40
2023-04-16T23:05:34.758Z,16.15
2023-04-16T23:08:01.318Z,18.25
2023-04-16T23:10:27.829Z,14.27
2023-04-16T23:12:54.359Z,15.88
2023-04-16T23:15:20.923Z,15.95
2023-04-16T23:17:47.502Z,16.13
2023-04-16T23:20:14.118Z,14.95
2023-04-16T23:22:41.173Z,14.02
2023-04-16T23:25:11.126Z,14.35
2023-04-16T23:27:37.765Z,11.20
2023-04-16T23:30:05.436Z,16.27
2023-04-16T23:32:33.991Z,15.32
2023-04-16T23:35:00.852Z,15.35
2023-04-16T23:37:27.326Z,17.95
2023-04-16T23:39:54.025Z,15.40
2023-04-16T23:42:20.602Z,14.63
2023-04-16T23:44:53.885Z,15.07
2023-04-16T23:47:20.517Z,13.95
2023-04-16T23:49:47.035Z,14.02
2023-04-16T23:52:13.772Z,17.35
2023-04-16T23:54:40.308Z,16.08
2023-04-16T23:57:15.270Z,15.60
2023-04-16T23:59:41.870Z,14.45
